Time;durP1;ratioP1;P1;durP2;ratioP2;P2;SDS_P1;SDS_P2;PMS_P1;PMS_P2;Temp;Humidity;BMP_temperature;BMP_pressure;BME280_temperature;BME280_humidity;BME280_pressure;Samples;Min_cycle;Max_cycle;Signal;HPM_P1;HPM_P2
2021/07/12 00:01:25;;;;;;;9.93;8.93;;;16.60;99.90;;;;;;4973258;28;20741;-80
2021/07/12 00:03:52;;;;;;;9.77;8.77;;;16.50;99.90;;;;;;4976948;28;20436;-83
2021/07/12 00:06:18;;;;;;;10.50;9.43;;;16.50;99.90;;;;;;4968286;28;20442;-81
2021/07/12 00:08:45;;;;;;;9.37;8.57;;;16.60;99.90;;;;;;4970014;28;20499;-83
2021/07/12 00:11:12;;;;;;;9.33;8.43;;;16.50;99.90;;;;;;4968001;28;20437;-80
2021/07/12 00:13:41;;;;;;;9.20;8.00;;;16.60;99.90;;;;;;4970899;28;20464;-81
2021/07/12 00:16:07;;;;;;;10.50;8.70;;;16.50;99.90;;;;;;4976041;28;21069;-81
2021/07/12 00:18:34;;;;;;;9.03;7.93;;;16.50;99.90;;;;;;4973970;28;20452;-80
2021/07/12 00:21:01;;;;;;;9.60;8.70;;;16.50;99.90;;;;;;4969513;28;20933;-81
2021/07/12 00:23:28;;;;;;;10.23;9.00;;;16.50;99.90;;;;;;4967158;28;20460;-83
2021/07/12 00:25:55;;;;;;;9.60;8.60;;;16.50;99.90;;;;;;4970402;28;20416;-81
2021/07/12 00:28:22;;;;;;;12.20;10.03;;;16.50;99.90;;;;;;4969086;28;20489;-82
2021/07/12 00:30:50;;;;;;;10.87;9.77;;;16.50;99.90;;;;;;4975149;28;20458;-80
2021/07/12 00:33:17;;;;;;;9.80;8.90;;;16.40;99.90;;;;;;4978440;28;20474;-81
2021/07/12 00:35:44;;;;;;;11.00;8.90;;;16.40;99.90;;;;;;4969044;28;20454;-80
2021/07/12 00:38:11;;;;;;;12.53;9.70;;;16.40;99.90;;;;;;4968574;28;20456;-83
2021/07/12 00:40:38;;;;;;;10.80;8.23;;;16.40;99.90;;;;;;4970486;28;20442;-78
2021/07/12 00:43:05;;;;;;;9.90;8.93;;;16.40;99.90;;;;;;4970433;28;20499;-79
2021/07/12 00:45:33;;;;;;;9.43;8.43;;;16.40;99.90;;;;;;4972419;28;20473;-79
2021/07/12 00:48:02;;;;;;;10.53;8.80;;;16.40;99.90;;;;;;4969481;28;20466;-80
2021/07/12 00:50:32;;;;;;;12.93;9.00;;;16.40;99.90;;;;;;4972592;28;20932;-82
2021/07/12 00:52:59;;;;;;;10.53;9.53;;;16.40;99.90;;;;;;4976598;28;20802;-79
2021/07/12 00:55:38;;;;;;;11.00;9.80;;;16.40;99.90;;;;;;4971405;28;20826;-81
2021/07/12 00:58:06;;;;;;;10.57;9.57;;;16.40;99.90;;;;;;4968991;28;20462;-80
2021/07/12 01:00:34;;;;;;;10.93;9.57;;;16.30;99.90;;;;;;4967649;28;20456;-82
2021/07/12 01:03:03;;;;;;;10.20;9.13;;;16.30;99.90;;;;;;4968947;28;20780;-80
2021/07/12 01:05:31;;;;;;;9.87;8.90;;;16.30;99.90;;;;;;4972415;28;20432;-83
2021/07/12 01:07:59;;;;;;;11.00;9.93;;;16.30;99.90;;;;;;4974881;28;20563;-83
2021/07/12 01:10:27;;;;;;;10.77;9.77;;;16.30;99.90;;;;;;4974296;28;20420;-79
2021/07/12 01:13:06;;;;;;;10.77;9.67;;;16.30;99.90;;;;;;4974339;28;20493;-82
2021/07/12 01:15:38;;;;;;;12.53;11.23;;;16.30;99.90;;;;;;4980009;28;20461;-82
2021/07/12 01:18:20;;;;;;;10.63;9.60;;;16.30;99.90;;;;;;4973284;28;20531;-81
2021/07/12 01:21:17;;;;;;;10.80;9.70;;;16.20;99.90;;;;;;4973792;28;20437;-82
2021/07/12 01:24:13;;;;;;;10.33;9.20;;;16.20;99.90;;;;;;4972959;28;20436;-82
2021/07/12 01:27:09;;;;;;;11.00;10.07;;;16.20;99.90;;;;;;4974356;28;20939;-79
2021/07/12 01:29:56;;;;;;;10.67;9.57;;;16.20;99.90;;;;;;4975411;28;20828;-82
2021/07/12 01:32:45;;;;;;;11.30;10.30;;;16.20;99.90;;;;;;4979339;28;20432;-80
2021/07/12 01:35:23;;;;;;;10.37;9.40;;;16.20;99.90;;;;;;4970296;28;20440;-79
2021/07/12 01:38:01;;;;;;;11.83;10.70;;;16.10;99.90;;;;;;4969944;28;20472;-78
2021/07/12 01:40:37;;;;;;;12.30;11.00;;;16.10;99.90;;;;;;4973008;28;20434;-81
2021/07/12 01:43:13;;;;;;;10.97;9.97;;;16.10;99.90;;;;;;4975724;28;20435;-81
2021/07/12 01:46:02;;;;;;;11.60;9.60;;;16.10;99.90;;;;;;4977942;28;20792;-83
2021/07/12 01:48:39;;;;;;;12.37;10.77;;;16.10;99.90;;;;;;4972220;28;20495;-81
2021/07/12 01:51:10;;;;;;;13.00;10.97;;;16.10;99.90;;;;;;4970584;28;20460;-79
2021/07/12 01:53:44;;;;;;;12.60;11.37;;;16.00;99.90;;;;;;4966009;28;20473;-81
2021/07/12 01:56:16;;;;;;;12.17;10.97;;;16.00;99.90;;;;;;4970728;28;20442;-82
2021/07/12 01:58:49;;;;;;;13.07;11.87;;;16.00;99.90;;;;;;4979022;28;20443;-83
2021/07/12 02:01:20;;;;;;;12.43;11.23;;;16.00;99.90;;;;;;4980176;28;20428;-82
2021/07/12 02:03:50;;;;;;;13.33;12.03;;;16.00;99.90;;;;;;4971720;28;20430;-83
2021/07/12 02:06:21;;;;;;;14.83;12.10;;;16.00;99.90;;;;;;4971555;28;20792;-84
2021/07/12 02:08:51;;;;;;;14.33;12.83;;;16.00;99.90;;;;;;4970852;28;21023;-82
2021/07/12 02:11:19;;;;;;;14.10;11.93;;;16.00;99.90;;;;;;4976081;28;20410;-82
2021/07/12 02:13:49;;;;;;;14.27;12.77;;;15.90;99.90;;;;;;4977245;28;20430;-80
2021/07/12 02:16:16;;;;;;;15.03;13.43;;;15.80;99.90;;;;;;4970754;28;20446;-80
2021/07/12 02:18:45;;;;;;;14.10;12.60;;;15.90;99.90;;;;;;4969698;28;20492;-80
2021/07/12 02:21:15;;;;;;;15.57;13.97;;;15.80;99.90;;;;;;4972539;28;20416;-80
2021/07/12 02:23:43;;;;;;;16.20;14.30;;;15.90;99.90;;;;;;4970689;28;20471;-80
2021/07/12 02:26:13;;;;;;;16.27;14.60;;;15.80;99.90;;;;;;4978810;28;20453;-78
2021/07/12 02:28:44;;;;;;;18.27;14.60;;;15.80;99.90;;;;;;4974822;28;20463;-80
2021/07/12 02:31:13;;;;;;;16.60;15.00;;;15.70;99.90;;;;;;4971162;28;20939;-78
2021/07/12 02:33:40;;;;;;;16.00;14.30;;;15.70;99.90;;;;;;4969269;28;20427;-78
2021/07/12 02:36:08;;;;;;;16.13;14.53;;;15.70;99.90;;;;;;4970737;28;20804;-80
2021/07/12 02:38:39;;;;;;;17.43;15.63;;;15.70;99.90;;;;;;4972066;28;20458;-79
2021/07/12 02:41:06;;;;;;;20.90;16.60;;;15.70;99.90;;;;;;4976838;28;20435;-80
2021/07/12 02:43:36;;;;;;;17.07;15.27;;;15.70;99.90;;;;;;4969756;28;20807;-80
2021/07/12 02:46:05;;;;;;;16.30;14.60;;;15.60;99.90;;;;;;4969803;28;20464;-80
2021/07/12 02:48:33;;;;;;;18.13;15.37;;;15.60;99.90;;;;;;4972111;28;21038;-81
2021/07/12 02:51:04;;;;;;;16.77;15.10;;;15.60;99.90;;;;;;4970613;28;20440;-79
2021/07/12 02:53:33;;;;;;;16.40;14.70;;;15.60;99.90;;;;;;4972900;28;20451;-80
2021/07/12 02:56:02;;;;;;;16.57;14.87;;;15.50;99.90;;;;;;4973122;28;20465;-79
2021/07/12 02:58:29;;;;;;;18.37;15.90;;;15.50;99.90;;;;;;4974242;28;20984;-78
2021/07/12 03:00:55;;;;;;;16.23;14.63;;;15.60;99.90;;;;;;4974242;28;20449;-81
2021/07/12 03:03:22;;;;;;;16.57;14.47;;;15.50;99.90;;;;;;4978241;28;20892;-80
2021/07/12 03:05:54;;;;;;;16.27;14.50;;;15.50;99.90;;;;;;4970022;28;20915;-80
2021/07/12 03:08:26;;;;;;;16.30;14.63;;;15.50;99.90;;;;;;4971778;28;20478;-79
2021/07/12 03:10:56;;;;;;;17.83;15.97;;;15.50;99.90;;;;;;4970392;28;20426;-81
2021/07/12 03:13:32;;;;;;;18.57;16.20;;;15.50;99.90;;;;;;4970352;28;20476;-79
2021/07/12 03:16:00;;;;;;;16.00;14.50;;;15.50;99.90;;;;;;4976288;28;20435;-80
2021/07/12 03:18:30;;;;;;;19.17;17.17;;;15.40;99.90;;;;;;4977237;28;20818;-81
2021/07/12 03:20:59;;;;;;;17.43;15.60;;;15.40;99.90;;;;;;4990553;28;20957;-80
2021/07/12 03:23:29;;;;;;;16.10;14.50;;;15.40;99.90;;;;;;4976622;28;20465;-80
2021/07/12 03:25:59;;;;;;;18.00;16.10;;;15.40;99.90;;;;;;4971449;28;20443;-80
2021/07/12 03:28:28;;;;;;;16.50;14.90;;;15.40;99.90;;;;;;4970009;28;20795;-79
2021/07/12 03:30:56;;;;;;;21.10;16.33;;;15.40;99.90;;;;;;4973715;28;20416;-81
2021/07/12 03:33:25;;;;;;;17.57;15.70;;;15.30;99.90;;;;;;4971783;28;20435;-80
2021/07/12 03:35:55;;;;;;;17.53;15.73;;;15.40;99.90;;;;;;4973426;28;20452;-80
2021/07/12 03:38:22;;;;;;;19.53;17.43;;;15.40;99.90;;;;;;4973082;28;20484;-80
2021/07/12 03:40:51;;;;;;;18.33;16.43;;;15.40;99.90;;;;;;4978337;28;20415;-78
2021/07/12 03:43:24;;;;;;;17.87;16.10;;;15.40;99.90;;;;;;4969939;28;20459;-82
2021/07/12 03:45:58;;;;;;;18.33;16.40;;;15.40;99.90;;;;;;4952926;28;20548;-79
2021/07/12 03:48:40;;;;;;;21.10;16.80;;;15.40;99.90;;;;;;4966197;28;20810;-83
2021/07/12 03:51:09;;;;;;;17.67;15.87;;;15.40;99.90;;;;;;4970913;28;20460;-81
2021/07/12 03:53:36;;;;;;;18.90;16.93;;;15.40;99.90;;;;;;4971547;28;20464;-79
2021/07/12 03:56:04;;;;;;;18.37;16.47;;;15.40;99.90;;;;;;4973232;28;20447;-81
2021/07/12 03:58:32;;;;;;;19.20;16.60;;;15.40;99.90;;;;;;4972858;28;20457;-83
2021/07/12 04:01:01;;;;;;;18.73;16.77;;;15.40;99.90;;;;;;4975335;28;20434;-81
2021/07/12 04:03:28;;;;;;;18.97;17.00;;;15.40;99.90;;;;;;4980698;28;20437;-82
2021/07/12 04:05:54;;;;;;;19.43;17.43;;;15.40;99.90;;;;;;4975527;28;20462;-82
2021/07/12 04:08:21;;;;;;;18.30;16.43;;;15.40;99.90;;;;;;4970477;28;20897;-81
2021/07/12 04:10:48;;;;;;;19.97;15.67;;;15.40;99.90;;;;;;4968702;28;21275;-80
2021/07/12 04:13:15;;;;;;;17.50;15.77;;;15.40;99.90;;;;;;4973943;28;20453;-82
2021/07/12 04:15:45;;;;;;;21.27;17.67;;;15.40;99.90;;;;;;4976154;28;20414;-82
2021/07/12 04:18:13;;;;;;;18.33;16.43;;;15.40;99.90;;;;;;4982729;28;20446;-80
2021/07/12 04:20:41;;;;;;;18.33;15.63;;;15.40;99.90;;;;;;4988850;28;20448;-80
2021/07/12 04:23:10;;;;;;;17.97;16.17;;;15.40;99.90;;;;;;4974114;28;20461;-80
2021/07/12 04:25:38;;;;;;;19.40;15.53;;;15.40;99.90;;;;;;4970805;28;20847;-81
2021/07/12 04:28:05;;;;;;;18.20;16.30;;;15.50;99.90;;;;;;4967800;28;20496;-80
2021/07/12 04:30:33;;;;;;;16.30;14.70;;;15.50;99.90;;;;;;4977879;28;20463;-80
2021/07/12 04:33:00;;;;;;;16.63;15.03;;;15.50;99.90;;;;;;4972273;28;20524;-79
2021/07/12 04:35:28;;;;;;;17.57;15.77;;;15.50;99.90;;;;;;4970514;28;20452;-80
2021/07/12 04:37:55;;;;;;;18.57;15.97;;;15.50;99.90;;;;;;4969556;28;20462;-79
2021/07/12 04:40:22;;;;;;;17.10;14.93;;;15.60;99.90;;;;;;4968154;28;20436;-81
2021/07/12 04:42:49;;;;;;;17.73;15.90;;;15.60;99.90;;;;;;4970253;28;20438;-81
2021/07/12 04:45:16;;;;;;;19.33;16.07;;;15.60;99.90;;;;;;4975135;28;20479;-80
2021/07/12 04:47:44;;;;;;;17.77;15.97;;;15.60;99.90;;;;;;4970618;28;20447;-79
2021/07/12 04:50:12;;;;;;;18.93;15.17;;;15.60;99.90;;;;;;4967083;28;20491;-79
2021/07/12 04:52:40;;;;;;;17.10;15.30;;;15.70;99.90;;;;;;4968521;28;20483;-79
2021/07/12 04:55:08;;;;;;;16.80;15.10;;;15.70;99.90;;;;;;4970419;28;20939;-80
2021/07/12 04:57:36;;;;;;;17.20;14.90;;;15.70;99.90;;;;;;4967614;28;20519;-80
2021/07/12 05:00:05;;;;;;;16.77;15.20;;;15.80;99.90;;;;;;4976255;28;20539;-80
2021/07/12 05:02:32;;;;;;;16.37;14.67;;;15.80;99.90;;;;;;4978735;28;20987;-80
2021/07/12 05:04:59;;;;;;;15.47;13.93;;;15.80;99.90;;;;;;4970189;28;20423;-81
2021/07/12 05:07:26;;;;;;;16.57;14.80;;;15.80;99.90;;;;;;4969902;28;20941;-80
2021/07/12 05:09:54;;;;;;;17.93;14.83;;;15.80;99.90;;;;;;4969060;28;20496;-78
2021/07/12 05:12:21;;;;;;;14.57;13.17;;;15.90;99.90;;;;;;4971189;28;20475;-82
2021/07/12 05:14:49;;;;;;;15.50;14.00;;;15.90;99.90;;;;;;4970345;28;20458;-80
2021/07/12 05:17:16;;;;;;;14.37;12.80;;;16.00;99.90;;;;;;4972067;28;20779;-82
2021/07/12 05:19:43;;;;;;;14.43;12.93;;;15.90;99.90;;;;;;4970262;28;20452;-82
2021/07/12 05:22:10;;;;;;;13.47;12.07;;;16.00;99.90;;;;;;4975728;28;20441;-80
2021/07/12 05:24:37;;;;;;;13.03;11.70;;;16.00;99.90;;;;;;4980253;28;20447;-80
2021/07/12 05:27:06;;;;;;;17.63;12.80;;;16.00;99.90;;;;;;4971821;28;20489;-80
2021/07/12 05:29:33;;;;;;;14.40;13.00;;;16.20;99.90;;;;;;4968806;28;20540;-81
2021/07/12 05:32:00;;;;;;;15.13;13.53;;;16.20;99.90;;;;;;4967631;28;20454;-80
2021/07/12 05:34:27;;;;;;;13.10;11.80;;;16.30;99.90;;;;;;4970273;28;20422;-79
2021/07/12 05:36:54;;;;;;;13.83;12.53;;;16.30;99.90;;;;;;4975085;28;20461;-80
2021/07/12 05:39:21;;;;;;;17.80;12.97;;;16.40;99.90;;;;;;4973094;28;20491;-81
2021/07/12 05:41:48;;;;;;;16.43;11.70;;;16.50;99.90;;;;;;4969613;28;20920;-82
2021/07/12 05:44:17;;;;;;;14.10;12.60;;;16.50;99.90;;;;;;4967573;28;20455;-83
2021/07/12 05:46:44;;;;;;;15.13;12.03;;;16.60;99.90;;;;;;4967389;28;20461;-80
2021/07/12 05:49:11;;;;;;;12.63;11.13;;;16.80;99.90;;;;;;4972559;28;21070;-81
2021/07/12 05:51:37;;;;;;;13.70;12.10;;;16.80;99.90;;;;;;4976345;28;20442;-81
2021/07/12 05:54:04;;;;;;;14.03;12.63;;;16.90;99.90;;;;;;4972184;28;20471;-84
2021/07/12 05:56:31;;;;;;;13.20;10.80;;;17.00;99.90;;;;;;4970611;28;20467;-79
2021/07/12 05:58:58;;;;;;;14.17;11.37;;;17.00;99.90;;;;;;4971631;28;20488;-79
2021/07/12 06:01:26;;;;;;;11.33;10.33;;;17.20;99.90;;;;;;4973183;28;20441;-80
2021/07/12 06:03:53;;;;;;;11.53;10.43;;;17.30;99.90;;;;;;4973620;28;20480;-83
2021/07/12 06:06:20;;;;;;;11.27;10.13;;;17.40;99.90;;;;;;4975238;28;20447;-80
2021/07/12 06:08:47;;;;;;;11.60;10.50;;;17.60;99.90;;;;;;4972835;28;21008;-80
2021/07/12 06:11:14;;;;;;;12.27;11.07;;;17.70;99.90;;;;;;4974177;28;20488;-82
2021/07/12 06:13:40;;;;;;;11.50;9.40;;;17.80;99.90;;;;;;4977830;28;20489;-80
2021/07/12 06:16:07;;;;;;;14.10;10.10;;;17.90;99.90;;;;;;4972397;28;20471;-82
2021/07/12 06:18:35;;;;;;;10.67;9.60;;;18.10;99.90;;;;;;4972397;28;20460;-82
2021/07/12 06:21:02;;;;;;;11.17;10.10;;;18.30;99.90;;;;;;4971647;28;20453;-79
2021/07/12 06:23:29;;;;;;;10.53;9.60;;;18.50;99.90;;;;;;4971018;28;20444;-81
2021/07/12 06:25:56;;;;;;;12.77;10.73;;;18.70;99.90;;;;;;4974649;28;20453;-82
2021/07/12 06:28:23;;;;;;;10.80;9.80;;;18.70;99.90;;;;;;4972734;28;20488;-81
2021/07/12 06:30:50;;;;;;;10.70;9.60;;;18.80;99.90;;;;;;4974801;28;20488;-80
2021/07/12 06:33:17;;;;;;;10.00;9.00;;;18.90;99.90;;;;;;4974293;28;20456;-83
2021/07/12 06:35:45;;;;;;;9.83;9.00;;;18.90;99.90;;;;;;4974584;28;20648;-82
2021/07/12 06:38:12;;;;;;;11.00;9.90;;;19.10;99.90;;;;;;4972473;28;20475;-84
2021/07/12 06:40:39;;;;;;;9.87;8.87;;;19.20;99.90;;;;;;4970162;28;20835;-86
2021/07/12 06:43:06;;;;;;;9.10;8.20;;;19.30;99.90;;;;;;4971803;28;20436;-85
2021/07/12 06:45:33;;;;;;;10.37;8.80;;;19.30;99.90;;;;;;4969591;28;20453;-81
2021/07/12 06:48:00;;;;;;;10.87;9.40;;;19.40;99.90;;;;;;4976109;28;21893;-84
2021/07/12 06:50:27;;;;;;;9.93;9.03;;;19.40;99.90;;;;;;4974125;28;20492;-86
2021/07/12 06:52:55;;;;;;;10.87;9.40;;;19.30;99.90;;;;;;4969865;28;20452;-80
2021/07/12 06:55:22;;;;;;;10.03;9.03;;;19.20;99.90;;;;;;4969553;28;20460;-86
2021/07/12 06:57:49;;;;;;;9.80;8.90;;;19.20;99.90;;;;;;4969253;28;20613;-83
2021/07/12 07:00:16;;;;;;;9.20;8.27;;;19.40;99.90;;;;;;4970072;28;20456;-82
2021/07/12 07:02:43;;;;;;;9.50;8.60;;;19.40;99.90;;;;;;4977833;28;20436;-83
2021/07/12 07:05:11;;;;;;;8.50;7.57;;;19.50;99.90;;;;;;4974831;28;20453;-82
2021/07/12 07:07:38;;;;;;;8.43;7.63;;;19.70;99.90;;;;;;4972131;28;20453;-87
2021/07/12 07:10:08;;;;;;;9.20;7.70;;;19.90;99.90;;;;;;4970346;28;20484;-82
2021/07/12 07:12:35;;;;;;;8.77;8.03;;;19.90;99.90;;;;;;4970881;28;20445;-83
2021/07/12 07:15:03;;;;;;;7.27;6.67;;;20.10;99.90;;;;;;4971380;28;20467;-83
2021/07/12 07:17:30;;;;;;;10.50;7.80;;;20.20;99.90;;;;;;4974244;28;20502;-82
2021/07/12 07:19:57;;;;;;;7.87;7.23;;;20.30;99.90;;;;;;4973370;28;20938;-81
2021/07/12 07:22:24;;;;;;;10.03;7.77;;;20.40;99.90;;;;;;4970792;28;20487;-82
2021/07/12 07:24:51;;;;;;;7.03;6.47;;;20.60;99.90;;;;;;4970366;28;20447;-83
2021/07/12 07:27:20;;;;;;;6.40;5.80;;;20.80;99.90;;;;;;4969366;28;20449;-84
2021/07/12 07:29:47;;;;;;;7.27;6.53;;;21.00;99.90;;;;;;4974509;28;20494;-86
2021/07/12 07:32:14;;;;;;;6.40;5.80;;;21.40;99.90;;;;;;4974169;28;20563;-86
2021/07/12 07:34:41;;;;;;;7.20;5.83;;;21.70;99.90;;;;;;4984458;28;20446;-86
2021/07/12 07:37:09;;;;;;;6.07;5.60;;;22.00;99.90;;;;;;4975703;28;20483;-82
2021/07/12 07:39:37;;;;;;;6.60;6.00;;;22.20;99.90;;;;;;4969413;28;20480;-81
2021/07/12 07:42:04;;;;;;;6.50;5.90;;;22.40;99.90;;;;;;4969683;28;20441;-81
2021/07/12 07:44:33;;;;;;;8.10;7.40;;;22.60;99.90;;;;;;4972893;28;20478;-85
2021/07/12 07:47:00;;;;;;;7.07;6.40;;;22.80;99.90;;;;;;4967666;28;20929;-85
2021/07/12 07:49:28;;;;;;;7.47;6.87;;;22.90;99.90;;;;;;4969170;28;20469;-85
2021/07/12 07:51:55;;;;;;;7.10;6.60;;;23.10;99.90;;;;;;4970786;28;20455;-80
2021/07/12 07:54:22;;;;;;;6.10;5.53;;;23.40;99.90;;;;;;4968969;28;20457;-83
2021/07/12 07:56:49;;;;;;;7.00;6.40;;;23.40;99.90;;;;;;4970327;28;20802;-78
2021/07/12 07:59:16;;;;;;;7.10;6.57;;;23.50;99.90;;;;;;4971381;28;20477;-80
2021/07/12 08:01:45;;;;;;;7.17;6.57;;;23.40;99.90;;;;;;4974637;28;20461;-85
2021/07/12 08:04:13;;;;;;;7.83;7.03;;;23.40;99.90;;;;;;4969031;28;20457;-84
2021/07/12 08:06:40;;;;;;;8.00;7.40;;;23.40;99.90;;;;;;4967164;28;20469;-82
2021/07/12 08:09:07;;;;;;;7.03;6.43;;;23.00;99.90;;;;;;4966745;28;20501;-82
2021/07/12 08:11:35;;;;;;;7.80;7.10;;;23.20;99.90;;;;;;4971149;28;20494;-81
2021/07/12 08:14:02;;;;;;;8.30;7.30;;;23.30;99.90;;;;;;4969607;28;20461;-82
2021/07/12 08:16:29;;;;;;;8.40;7.53;;;23.40;99.90;;;;;;4969381;28;20457;-82
2021/07/12 08:18:57;;;;;;;7.23;6.63;;;23.40;99.90;;;;;;4971129;28;20456;-82
2021/07/12 08:21:24;;;;;;;6.93;6.33;;;23.50;99.90;;;;;;4972440;28;21191;-80
2021/07/12 08:23:51;;;;;;;7.37;6.70;;;23.70;99.90;;;;;;4976698;28;21844;-81
2021/07/12 08:26:18;;;;;;;6.80;6.17;;;23.70;99.90;;;;;;4969797;28;20452;-80
2021/07/12 08:28:45;;;;;;;6.70;5.93;;;23.80;99.90;;;;;;4965910;28;20484;-82
2021/07/12 08:31:12;;;;;;;6.87;6.20;;;23.90;99.90;;;;;;4969781;28;20477;-82
2021/07/12 08:33:39;;;;;;;6.97;6.37;;;24.00;99.90;;;;;;4966665;28;20457;-83
2021/07/12 08:36:08;;;;;;;6.60;6.10;;;24.00;99.90;;;;;;4971781;28;20866;-81
2021/07/12 08:38:36;;;;;;;6.57;6.07;;;24.00;99.90;;;;;;4971987;28;20483;-84
2021/07/12 08:41:03;;;;;;;7.47;6.87;;;24.00;99.90;;;;;;4971102;28;20461;-84
2021/07/12 08:43:30;;;;;;;5.37;4.97;;;23.90;99.90;;;;;;4971685;28;20424;-83
2021/07/12 08:45:57;;;;;;;6.17;5.67;;;23.80;99.90;;;;;;4974656;28;20467;-83
2021/07/12 08:48:24;;;;;;;6.83;6.30;;;23.80;99.90;;;;;;4971830;28;20904;-82
2021/07/12 08:50:51;;;;;;;5.23;4.77;;;23.70;99.90;;;;;;4968600;28;20494;-81
2021/07/12 08:53:19;;;;;;;5.10;4.70;;;23.80;99.90;;;;;;4969333;28;20457;-86
2021/07/12 08:55:47;;;;;;;4.70;4.40;;;23.60;99.90;;;;;;4970170;28;20468;-86
2021/07/12 08:58:19;;;;;;;5.10;4.70;;;23.50;99.90;;;;;;4967997;28;20838;-80
2021/07/12 09:00:50;;;;;;;5.00;4.50;;;23.40;99.90;;;;;;4977149;28;20445;-84
2021/07/12 09:03:20;;;;;;;4.80;4.50;;;23.20;99.90;;;;;;4972295;28;20456;-82
2021/07/12 09:05:57;;;;;;;4.53;4.20;;;22.90;99.90;;;;;;4950815;28;20803;-80
2021/07/12 09:08:42;;;;;;;4.90;4.40;;;22.60;99.90;;;;;;4964392;28;20484;-85
2021/07/12 09:11:12;;;;;;;4.37;4.07;;;22.40;99.90;;;;;;4962747;28;20500;-83
2021/07/12 09:13:44;;;;;;;4.73;4.33;;;22.20;99.90;;;;;;4975957;28;20826;-85
2021/07/12 09:16:30;;;;;;;4.77;4.37;;;22.10;99.90;;;;;;4970794;28;20464;-84
2021/07/12 09:19:20;;;;;;;4.93;4.53;;;22.00;99.90;;;;;;4968436;28;20473;-84
2021/07/12 09:21:50;;;;;;;4.77;4.37;;;21.90;99.90;;;;;;4966516;28;21279;-82
2021/07/12 09:24:24;;;;;;;4.00;3.67;;;21.90;99.90;;;;;;4969150;28;20444;-86
2021/07/12 09:26:55;;;;;;;4.50;4.10;;;21.80;99.90;;;;;;4971404;28;21002;-88
2021/07/12 09:29:24;;;;;;;4.57;4.17;;;21.70;99.90;;;;;;4972593;28;20834;-86
2021/07/12 09:31:52;;;;;;;4.57;4.17;;;21.60;99.90;;;;;;4971428;28;20494;-84
2021/07/12 09:34:20;;;;;;;4.13;3.83;;;21.60;99.90;;;;;;4970127;28;20487;-87
2021/07/12 09:36:48;;;;;;;4.00;3.70;;;21.50;99.90;;;;;;4971089;28;20474;-85
2021/07/12 09:39:30;;;;;;;4.00;3.60;;;21.50;99.90;;;;;;4970754;28;20488;-85
2021/07/12 09:41:59;;;;;;;3.53;3.23;;;21.50;99.90;;;;;;4970481;28;20953;-85
2021/07/12 09:44:28;;;;;;;4.40;4.00;;;21.40;99.90;;;;;;4985040;28;20514;-88
2021/07/12 09:46:58;;;;;;;5.27;4.73;;;21.30;99.90;;;;;;4977760;28;20449;-87
2021/07/12 09:49:26;;;;;;;4.00;3.53;;;21.20;99.90;;;;;;4969738;28;20579;-91
2021/07/12 09:51:56;;;;;;;4.30;3.97;;;21.20;99.90;;;;;;4972708;28;20683;-87
2021/07/12 09:54:27;;;;;;;3.83;3.53;;;21.10;99.90;;;;;;4973583;28;20467;-87
2021/07/12 09:56:56;;;;;;;4.67;4.27;;;20.90;99.90;;;;;;4983950;28;20447;-89
2021/07/12 09:59:23;;;;;;;3.47;3.20;;;21.00;99.90;;;;;;4966498;28;20484;-88
2021/07/12 10:01:52;;;;;;;4.00;3.30;;;21.00;99.90;;;;;;4969534;28;20459;-85
2021/07/12 10:04:21;;;;;;;3.37;3.07;;;20.90;99.90;;;;;;4971251;28;20471;-88
2021/07/12 10:06:50;;;;;;;2.63;2.43;;;20.90;99.90;;;;;;4972247;28;20476;-87
2021/07/12 10:09:21;;;;;;;3.93;3.10;;;20.70;99.90;;;;;;4977438;28;20475;-90
2021/07/12 10:11:50;;;;;;;3.40;3.10;;;20.50;99.90;;;;;;4968181;28;20484;-91
2021/07/12 10:14:19;;;;;;;3.63;3.33;;;20.50;99.90;;;;;;4970446;28;20468;-90
2021/07/12 10:16:46;;;;;;;3.63;3.37;;;20.50;99.90;;;;;;4969577;28;20861;-88
2021/07/12 10:19:14;;;;;;;3.40;3.03;;;20.50;99.90;;;;;;4957590;28;20483;-88
2021/07/12 10:21:46;;;;;;;3.60;3.27;;;20.50;99.90;;;;;;4974169;28;20515;-87
2021/07/12 10:24:14;;;;;;;5.03;3.03;;;20.60;99.90;;;;;;4956263;28;20826;-88
2021/07/12 10:26:47;;;;;;;3.23;3.03;;;20.70;99.90;;;;;;4973955;28;20448;-86
2021/07/12 10:29:18;;;;;;;3.30;3.00;;;20.60;99.90;;;;;;4972984;28;20503;-88
2021/07/12 10:32:03;;;;;;;3.97;3.67;;;20.60;99.90;;;;;;4977286;28;20582;-88
2021/07/12 10:34:35;;;;;;;3.30;3.10;;;20.60;99.90;;;;;;4957192;28;20457;-87
2021/07/12 10:37:04;;;;;;;3.50;3.20;;;20.60;99.90;;;;;;4970024;28;20449;-89
2021/07/12 10:40:04;;;;;;;3.87;3.30;;;20.50;99.90;;;;;;4968699;28;21116;-89
2021/07/12 10:42:54;;;;;;;4.23;3.37;;;20.50;99.90;;;;;;4969744;28;20895;-89
2021/07/12 10:45:34;;;;;;;5.60;3.70;;;20.40;99.90;;;;;;4971354;28;20465;-90
2021/07/12 10:48:05;;;;;;;4.00;3.70;;;20.60;99.90;;;;;;4972254;28;20915;-91
2021/07/12 10:50:49;;;;;;;4.10;3.77;;;20.60;99.90;;;;;;4971607;28;20444;-87
2021/07/12 10:53:39;;;;;;;4.40;4.00;;;20.70;99.90;;;;;;4977552;28;20449;-89
2021/07/12 10:56:10;;;;;;;3.70;3.40;;;20.70;99.90;;;;;;4972261;28;20445;-87
2021/07/12 10:58:52;;;;;;;3.83;3.53;;;20.60;99.90;;;;;;4969071;28;20508;-88
2021/07/12 11:01:39;;;;;;;3.97;3.67;;;20.50;99.90;;;;;;4968845;28;20460;-84
2021/07/12 11:04:35;;;;;;;4.17;3.80;;;20.60;99.90;;;;;;4971416;28;20821;-86
2021/07/12 11:07:04;;;;;;;4.40;4.00;;;20.50;99.90;;;;;;4973956;28;20452;-87
2021/07/12 11:09:49;;;;;;;3.50;3.20;;;20.50;99.90;;;;;;4969191;28;20483;-88
2021/07/12 11:12:32;;;;;;;4.33;4.03;;;20.70;99.90;;;;;;4967940;28;20485;-86
2021/07/12 11:15:10;;;;;;;4.30;4.00;;;20.80;99.90;;;;;;4968915;28;20518;-84
2021/07/12 11:17:51;;;;;;;6.10;4.10;;;20.60;99.90;;;;;;4967868;28;20494;-85
2021/07/12 11:20:18;;;;;;;3.93;3.63;;;20.60;99.90;;;;;;4975882;28;20441;-87
2021/07/12 11:22:52;;;;;;;3.37;3.07;;;20.70;99.90;;;;;;4977892;28;20459;-89
2021/07/12 11:25:38;;;;;;;3.17;2.87;;;20.80;99.90;;;;;;4978736;28;20463;-86
2021/07/12 11:28:10;;;;;;;6.73;2.90;;;20.80;99.90;;;;;;4968305;28;20550;-85
2021/07/12 11:30:38;;;;;;;3.00;2.80;;;20.90;99.90;;;;;;4951629;28;20450;-88
2021/07/12 11:33:06;;;;;;;2.63;2.43;;;20.70;99.90;;;;;;4965610;28;20464;-89
2021/07/12 11:35:33;;;;;;;2.60;2.40;;;20.70;99.90;;;;;;4978541;28;21606;-85
2021/07/12 11:38:01;;;;;;;2.90;2.70;;;20.70;99.90;;;;;;4979420;28;20648;-87
2021/07/12 11:40:28;;;;;;;2.73;2.53;;;20.70;99.90;;;;;;4974533;28;20565;-83
2021/07/12 11:42:55;;;;;;;6.50;2.83;;;20.80;99.90;;;;;;4975935;28;20439;-86
2021/07/12 11:45:24;;;;;;;2.60;2.40;;;20.90;99.90;;;;;;4974357;28;20548;-90
2021/07/12 11:47:55;;;;;;;3.43;2.20;;;20.90;99.90;;;;;;4978251;28;21068;-86
2021/07/12 11:50:25;;;;;;;2.50;2.30;;;20.90;99.90;;;;;;4978860;28;20461;-86
2021/07/12 11:52:53;;;;;;;2.70;2.50;;;20.80;99.90;;;;;;4991866;28;20483;-86
2021/07/12 11:55:22;;;;;;;2.50;2.30;;;20.80;99.90;;;;;;4979762;28;20439;-86
2021/07/12 11:57:55;;;;;;;2.63;2.43;;;20.90;99.90;;;;;;4974053;28;20469;-88
2021/07/12 12:00:26;;;;;;;2.67;2.40;;;20.80;99.90;;;;;;4973929;28;20460;-85
2021/07/12 12:02:57;;;;;;;2.47;2.27;;;20.80;99.90;;;;;;4979638;28;20468;-91
2021/07/12 12:05:28;;;;;;;2.60;2.33;;;20.80;99.90;;;;;;4974743;28;20433;-86
2021/07/12 12:07:58;;;;;;;2.43;2.23;;;20.90;99.90;;;;;;4970283;28;20495;-87
2021/07/12 12:10:28;;;;;;;2.60;2.40;;;20.90;99.90;;;;;;4970647;28;20464;-86
2021/07/12 12:12:56;;;;;;;4.60;2.60;;;21.00;99.90;;;;;;4971634;28;20531;-88
2021/07/12 12:15:26;;;;;;;2.60;2.40;;;20.90;99.90;;;;;;4969849;28;20460;-88
2021/07/12 12:17:56;;;;;;;2.50;2.30;;;20.90;99.90;;;;;;4970527;28;20480;-88
2021/07/12 12:20:27;;;;;;;2.27;2.07;;;20.90;99.90;;;;;;4971304;28;20437;-85
2021/07/12 12:22:58;;;;;;;4.03;2.80;;;20.80;99.90;;;;;;4970510;28;20473;-91
2021/07/12 12:25:26;;;;;;;2.63;2.43;;;20.90;99.90;;;;;;4974381;28;20448;-88
2021/07/12 12:27:54;;;;;;;2.40;2.20;;;20.90;99.90;;;;;;4970256;28;20910;-87
2021/07/12 12:30:21;;;;;;;2.60;2.40;;;20.90;99.90;;;;;;4960976;28;21618;-88
2021/07/12 12:32:55;;;;;;;4.00;2.63;;;20.90;99.90;;;;;;4969354;28;20498;-86
2021/07/12 12:35:27;;;;;;;2.30;2.13;;;21.00;99.90;;;;;;4969769;28;20452;-87
2021/07/12 12:38:08;;;;;;;2.90;2.70;;;21.00;99.90;;;;;;4970906;28;20481;-87
2021/07/12 12:40:35;;;;;;;3.13;2.33;;;21.00;99.90;;;;;;4966335;28;20456;-86
2021/07/12 12:43:11;;;;;;;3.20;2.43;;;21.00;99.90;;;;;;4972084;28;20515;-90
2021/07/12 12:45:44;;;;;;;3.13;2.83;;;21.00;99.90;;;;;;4969720;28;20461;-91
2021/07/12 12:48:12;;;;;;;3.37;3.00;;;21.00;99.90;;;;;;4974218;28;20461;-87
2021/07/12 12:50:40;;;;;;;3.53;3.07;;;21.10;99.90;;;;;;4977389;28;20492;-89
2021/07/12 12:53:09;;;;;;;2.73;2.53;;;21.10;99.90;;;;;;4966232;28;20499;-88